This is the latest recevied weather packets stored in our database for station/object IR3AS. If no packets are shown the sender has not sent any weather packets the latest 10 day(s).
| Time | Temp. | Humidity | Pressure | Rain* | Wind** | Luminosity | Snow |
|---|---|---|---|---|---|---|---|
| 1777540866 | 4.44° C | 88% | 861.6 hPa | 0 mm | - | - | - |
| 1777540566 | 4.44° C | 88% | 861.4 hPa | 0 mm | - | - | - |
| 1777540266 | 3.89° C | 88% | 861.4 hPa | 0 mm | - | - | - |
| 1777539968 | 3.89° C | 88% | 861.2 hPa | 0 mm | - | - | - |
| 1777539666 | 4.44° C | 89% | 860.9 hPa | 0 mm | - | - | - |
| 1777539366 | 4.44° C | 89% | 860.6 hPa | 0 mm | - | - | - |
| 1777539066 | 4.44° C | 90% | 860.3 hPa | 0 mm | - | - | - |
| 1777538766 | 4.44° C | 91% | 859.9 hPa | 0 mm | - | - | - |
| 1777538466 | 3.89° C | 91% | 859.9 hPa | 0 mm | - | - | - |
| 1777538166 | 3.89° C | 92% | 859.5 hPa | 0 mm | - | - | - |
| 1777537866 | 3.89° C | 92% | 859.3 hPa | 0 mm | - | - | - |
| 1777537567 | 3.89° C | 92% | 859 hPa | 0 mm | - | - | - |
| 1777537267 | 3.33° C | 92% | 858.8 hPa | 0 mm | - | - | - |
| 1777536967 | 2.78° C | 92% | 858.8 hPa | 0 mm | - | - | - |
| 1777536667 | 2.78° C | 92% | 858.5 hPa | 0 mm | - | - | - |
| 1777536366 | 2.22° C | 92% | 858.6 hPa | 0 mm | - | - | - |
| 1777536066 | 2.22° C | 92% | 858.4 hPa | 0 mm | - | - | - |
| 1777535766 | 2.22° C | 92% | 858.3 hPa | 0 mm | - | - | - |
| 1777535467 | 2.22° C | 92% | 858.3 hPa | 0 mm | - | - | - |
| 1777535166 | 2.22° C | 92% | 858.2 hPa | 0 mm | - | - | - |
| 1777534867 | 1.67° C | 93% | 858.1 hPa | 0 mm | - | - | - |
| 1777534566 | 1.67° C | 93% | 858 hPa | 0 mm | - | - | - |
| 1777534266 | 1.11° C | 93% | 857.9 hPa | 0 mm | - | - | - |
| 1777533967 | 1.11° C | 93% | 857.8 hPa | 0 mm | - | - | - |
| 1777533668 | 1.11° C | 93% | 857.9 hPa | 0 mm | - | - | - |
* Rain latest hour (hover to see other rain measurements)
** Current wind speed in m/s (hover to see current wind gust speed)